Terminal Aerodrome Forecast
Issued by NWS

Home | Current Version | Previous Version | Text Only | Print | Product List | Glossary On
Versions: 1 2 3 4 5 6 7 8 9 10 11 12 13 14 15 16 17 18 19 20 21
001
FTUS46 KMTR 270520
TAFSTS
TAF
KSTS 270520Z 2706/2806 VRB03KT P6SM FEW035
     FM270800 30003KT P6SM FEW022
     FM271300 31005KT P6SM FEW020
     FM272100 31010KT P6SM FEW025 SCT050
     FM280400 31005KT P6SM SKC=

USA.gov is the U.S. government's official web portal to all federal, state and local government web resources and services.